Time;durP1;ratioP1;P1;durP2;ratioP2;P2;SDS_P1;SDS_P2;PMS_P1;PMS_P2;Temp;Humidity;BMP_temperature;BMP_pressure;BME280_temperature;BME280_humidity;BME280_pressure;Samples;Min_cycle;Max_cycle;Signal;HPM_P1;HPM_P2
2021/12/06 00:00:32;;;;;;;8.63;6.40;;;16.60;49.10;;;;;;10563832;28;20568;-64
2021/12/06 00:05:55;;;;;;;11.13;7.83;;;16.60;49.10;;;;;;10565396;28;20206;-64
2021/12/06 00:11:18;;;;;;;8.27;7.37;;;16.60;48.90;;;;;;10583106;28;20195;-65
2021/12/06 00:16:40;;;;;;;8.77;7.10;;;16.60;48.80;;;;;;10578611;28;20646;-65
2021/12/06 00:22:06;;;;;;;9.87;7.70;;;16.60;48.60;;;;;;10577383;28;20206;-65
2021/12/06 00:27:28;;;;;;;9.77;7.17;;;16.60;48.70;;;;;;10577626;28;20215;-65
2021/12/06 00:32:51;;;;;;;11.13;7.40;;;16.60;48.70;;;;;;10540479;28;20200;-65
2021/12/06 00:38:14;;;;;;;9.53;7.43;;;16.60;48.80;;;;;;10535919;28;20700;-65
2021/12/06 00:43:36;;;;;;;10.70;7.97;;;16.60;49.00;;;;;;10540448;28;20187;-64
2021/12/06 00:48:59;;;;;;;12.57;8.23;;;16.50;49.00;;;;;;10574877;28;20211;-65
2021/12/06 00:54:22;;;;;;;10.70;8.23;;;16.50;49.00;;;;;;10577645;28;20191;-64
2021/12/06 00:59:45;;;;;;;11.07;8.60;;;16.50;49.00;;;;;;10577060;28;20203;-65
2021/12/06 01:05:08;;;;;;;9.83;7.47;;;16.50;48.90;;;;;;10576329;28;20825;-65
2021/12/06 01:10:33;;;;;;;10.43;8.77;;;16.50;48.80;;;;;;10577555;28;20683;-65
2021/12/06 01:15:56;;;;;;;10.27;7.67;;;16.50;48.90;;;;;;10574247;28;20218;-65
2021/12/06 01:21:23;;;;;;;10.20;7.20;;;16.50;49.00;;;;;;10569206;28;20191;-65
2021/12/06 01:27:26;;;;;;;8.93;7.40;;;16.50;49.10;;;;;;10569295;28;20226;-65
2021/12/06 01:44:21;;;;;;;8.67;7.23;;;16.50;49.00;;;;;;10575720;28;20682;-65
2021/12/06 01:49:46;;;;;;;9.13;6.67;;;16.50;48.90;;;;;;10575578;28;20207;-65
2021/12/06 01:55:11;;;;;;;7.13;6.13;;;16.50;49.10;;;;;;10549219;28;20216;-64
2021/12/06 02:00:40;;;;;;;8.37;6.37;;;16.50;49.10;;;;;;10540130;28;20342;-65
2021/12/06 02:06:03;;;;;;;7.77;6.40;;;16.50;48.90;;;;;;10532908;28;20215;-65
2021/12/06 02:11:27;;;;;;;8.27;6.97;;;16.50;48.60;;;;;;10566642;28;20198;-65
2021/12/06 02:17:02;;;;;;;8.57;6.87;;;16.50;48.30;;;;;;10573072;28;20688;-65
2021/12/06 02:22:29;;;;;;;9.00;6.30;;;16.50;48.20;;;;;;10557457;28;20250;-64
2021/12/06 02:27:53;;;;;;;7.47;6.27;;;16.50;48.30;;;;;;10533189;28;20569;-65
2021/12/06 02:33:15;;;;;;;7.90;6.93;;;16.50;48.20;;;;;;10532407;28;20203;-64
2021/12/06 02:38:39;;;;;;;8.40;6.43;;;16.50;48.30;;;;;;10576357;28;20223;-65
2021/12/06 02:44:01;;;;;;;8.40;6.80;;;16.50;48.50;;;;;;10581961;28;20195;-65
2021/12/06 02:49:24;;;;;;;7.77;6.57;;;16.50;48.60;;;;;;10582776;28;20229;-65
2021/12/06 02:54:54;;;;;;;8.83;7.10;;;16.50;48.50;;;;;;10582235;28;20232;-65
2021/12/06 03:00:17;;;;;;;9.27;7.80;;;16.50;48.50;;;;;;10581189;28;20301;-64
2021/12/06 03:05:39;;;;;;;10.23;7.47;;;16.50;48.60;;;;;;10581593;28;20221;-65
2021/12/06 03:11:03;;;;;;;9.43;7.43;;;16.40;48.60;;;;;;10580069;28;20195;-65
2021/12/06 03:16:26;;;;;;;9.77;7.97;;;16.40;48.60;;;;;;10579134;28;20215;-64
2021/12/06 03:21:49;;;;;;;9.73;7.70;;;16.40;48.40;;;;;;10571735;28;20214;-64
2021/12/06 03:27:14;;;;;;;10.17;8.00;;;16.40;48.20;;;;;;10542409;28;20411;-64
2021/12/06 03:32:36;;;;;;;9.33;7.87;;;16.50;48.10;;;;;;10540097;28;20207;-65
2021/12/06 03:37:58;;;;;;;10.50;8.53;;;16.50;47.90;;;;;;10538973;28;20224;-64
2021/12/06 03:43:22;;;;;;;10.77;8.40;;;16.50;47.90;;;;;;10540936;28;20203;-65
2021/12/06 03:48:44;;;;;;;12.10;8.90;;;16.50;47.90;;;;;;10566544;28;20210;-64
2021/12/06 03:54:07;;;;;;;10.47;8.33;;;16.50;48.10;;;;;;10570891;28;20563;-64
2021/12/06 03:59:31;;;;;;;9.97;8.43;;;16.50;48.30;;;;;;10541675;22;20228;-64
2021/12/06 04:04:54;;;;;;;10.33;8.43;;;16.40;48.40;;;;;;10535574;28;20227;-64
2021/12/06 04:10:17;;;;;;;11.23;8.83;;;16.40;48.50;;;;;;10495467;28;20264;-64
2021/12/06 04:15:41;;;;;;;10.80;9.10;;;16.40;48.40;;;;;;10495848;28;20213;-64
2021/12/06 04:21:04;;;;;;;11.23;9.50;;;16.40;48.30;;;;;;10518678;28;20200;-63
2021/12/06 04:26:26;;;;;;;12.00;9.60;;;16.40;48.30;;;;;;10496003;28;20338;-64
2021/12/06 04:31:55;;;;;;;13.60;9.87;;;16.40;48.40;;;;;;10494850;28;20670;-63
2021/12/06 04:37:17;;;;;;;14.37;10.03;;;16.40;48.40;;;;;;10495603;28;20691;-64
2021/12/06 04:42:40;;;;;;;13.10;9.90;;;16.40;48.30;;;;;;10512926;28;20586;-62
2021/12/06 04:48:04;;;;;;;13.57;9.97;;;16.40;47.90;;;;;;10506451;28;20234;-64
2021/12/06 04:53:35;;;;;;;13.73;11.03;;;16.60;47.50;;;;;;10485189;28;20203;-65
2021/12/06 04:59:03;;;;;;;14.93;11.30;;;16.70;47.10;;;;;;10488196;28;20238;-63
2021/12/06 05:04:32;;;;;;;13.70;10.27;;;16.80;46.80;;;;;;10493704;28;20204;-64
2021/12/06 05:09:54;;;;;;;13.37;10.77;;;16.80;46.50;;;;;;10476261;28;20664;-64
2021/12/06 05:15:17;;;;;;;13.93;10.37;;;16.80;46.70;;;;;;10491850;28;20228;-65
2021/12/06 05:20:40;;;;;;;12.23;9.87;;;16.70;46.80;;;;;;10529786;28;20203;-64
2021/12/06 05:26:03;;;;;;;12.83;10.07;;;16.60;47.10;;;;;;10527968;28;20220;-64
2021/12/06 05:31:26;;;;;;;14.93;10.63;;;16.60;47.60;;;;;;10511832;28;20199;-65
2021/12/06 05:36:49;;;;;;;12.27;9.37;;;16.50;47.80;;;;;;10482275;28;20228;-65
2021/12/06 05:42:13;;;;;;;12.97;10.03;;;16.50;47.90;;;;;;10519425;28;20196;-65
2021/12/06 05:47:36;;;;;;;12.60;9.93;;;16.50;47.70;;;;;;10507444;28;20223;-66
2021/12/06 05:53:00;;;;;;;13.93;9.63;;;16.50;47.80;;;;;;10486276;28;20200;-65
2021/12/06 05:58:27;;;;;;;12.53;8.80;;;16.50;47.80;;;;;;10486991;28;20220;-64
2021/12/06 06:03:49;;;;;;;14.67;9.87;;;16.50;47.90;;;;;;10479985;28;20671;-63
2021/12/06 06:09:12;;;;;;;12.27;8.67;;;16.40;47.80;;;;;;10493470;28;20683;-64
2021/12/06 06:14:35;;;;;;;11.23;9.17;;;16.50;47.70;;;;;;10498060;28;20204;-63
2021/12/06 06:19:59;;;;;;;10.80;8.47;;;16.50;47.30;;;;;;10495788;28;20598;-64
2021/12/06 06:25:22;;;;;;;11.47;8.67;;;16.60;47.10;;;;;;10496639;28;20761;-65
2021/12/06 06:30:44;;;;;;;12.37;9.30;;;16.70;46.80;;;;;;10497288;28;20210;-64
2021/12/06 06:36:07;;;;;;;12.60;10.07;;;16.80;46.30;;;;;;10501288;28;20707;-65
2021/12/06 06:41:31;;;;;;;13.17;10.07;;;16.80;46.10;;;;;;10500238;28;20196;-64
2021/12/06 06:46:53;;;;;;;10.00;8.17;;;16.80;46.10;;;;;;10499291;28;20217;-64
2021/12/06 06:52:16;;;;;;;11.57;8.77;;;16.80;46.30;;;;;;10474705;28;20201;-64
2021/12/06 06:57:41;;;;;;;12.33;9.33;;;16.70;46.60;;;;;;10468172;28;20228;-65
2021/12/06 07:03:04;;;;;;;11.40;8.80;;;16.60;46.80;;;;;;10472794;28;20659;-65
2021/12/06 07:08:26;;;;;;;12.43;9.20;;;16.60;47.10;;;;;;10468365;28;20220;-64
2021/12/06 07:13:49;;;;;;;12.40;9.37;;;16.60;47.10;;;;;;10472974;28;20204;-64
2021/12/06 07:19:12;;;;;;;11.80;9.53;;;16.60;47.10;;;;;;10466669;28;20232;-65
2021/12/06 07:24:34;;;;;;;13.30;9.60;;;16.50;47.10;;;;;;10467533;28;20212;-65
2021/12/06 07:29:58;;;;;;;12.00;9.47;;;16.50;47.20;;;;;;10459458;28;20620;-66
2021/12/06 07:35:21;;;;;;;13.30;9.53;;;16.50;47.30;;;;;;10474998;28;20219;-66
2021/12/06 07:40:43;;;;;;;12.60;9.83;;;16.50;47.30;;;;;;10464531;28;20199;-65
2021/12/06 07:46:07;;;;;;;13.60;10.00;;;16.50;47.20;;;;;;10460807;28;20231;-65
2021/12/06 07:51:30;;;;;;;12.43;9.60;;;16.50;46.80;;;;;;10460157;28;20205;-65
2021/12/06 07:56:52;;;;;;;14.40;9.20;;;16.60;46.60;;;;;;10479857;28;20231;-64
2021/12/06 08:02:16;;;;;;;13.20;9.20;;;16.70;46.30;;;;;;10484825;28;20327;-65
2021/12/06 08:07:38;;;;;;;9.63;8.23;;;16.80;45.80;;;;;;10487034;28;20213;-65
2021/12/06 08:13:01;;;;;;;10.57;8.13;;;16.70;45.50;;;;;;10486357;28;20225;-66
2021/12/06 08:18:24;;;;;;;9.90;7.60;;;16.70;46.00;;;;;;10469052;28;20224;-65
2021/12/06 08:23:48;;;;;;;12.13;8.03;;;16.70;46.60;;;;;;10477905;28;20679;-65
2021/12/06 08:29:15;;;;;;;11.13;8.88;;;16.60;47.30;;;;;;10480801;28;20428;-65
2021/12/06 08:34:41;;;;;;;9.33;7.47;;;16.80;47.00;;;;;;10476917;28;20205;-64
2021/12/06 08:40:04;;;;;;;11.13;8.00;;;16.70;46.70;;;;;;10479950;28;20209;-64
2021/12/06 08:45:27;;;;;;;9.30;7.33;;;16.60;47.10;;;;;;10497239;28;20223;-65
2021/12/06 08:50:51;;;;;;;11.23;7.27;;;16.50;47.40;;;;;;10486335;28;20660;-65
2021/12/06 08:56:13;;;;;;;10.03;7.37;;;16.40;47.80;;;;;;10495546;28;20227;-65
2021/12/06 09:01:37;;;;;;;10.03;7.20;;;16.40;48.00;;;;;;10490649;28;20682;-66
2021/12/06 09:07:00;;;;;;;9.77;7.60;;;16.40;47.70;;;;;;10482465;28;20213;-65
2021/12/06 09:12:25;;;;;;;9.00;6.77;;;16.40;47.30;;;;;;10489626;28;20599;-65
2021/12/06 09:17:48;;;;;;;9.30;7.17;;;16.50;47.20;;;;;;10476426;28;20236;-64
2021/12/06 09:23:12;;;;;;;10.17;7.30;;;16.60;47.60;;;;;;10493830;28;20192;-64
2021/12/06 09:28:34;;;;;;;8.30;6.37;;;16.80;46.30;;;;;;10491727;28;20216;-64
2021/12/06 09:33:57;;;;;;;9.03;7.23;;;16.80;45.80;;;;;;10486358;28;20193;-64
2021/12/06 09:39:20;;;;;;;8.40;6.80;;;16.80;45.60;;;;;;10452150;28;20217;-63
2021/12/06 09:44:42;;;;;;;8.80;6.73;;;16.80;45.90;;;;;;10467603;28;20204;-65
2021/12/06 09:50:07;;;;;;;8.13;6.20;;;16.80;46.20;;;;;;10453104;28;20185;-65
2021/12/06 09:55:32;;;;;;;7.93;6.10;;;16.70;46.50;;;;;;10508908;22;20227;-65
2021/12/06 10:00:58;;;;;;;7.37;6.00;;;16.60;46.60;;;;;;10531226;28;20486;-62
2021/12/06 10:06:22;;;;;;;8.10;6.53;;;16.60;46.70;;;;;;10521874;28;20219;-63
2021/12/06 10:11:46;;;;;;;9.20;6.23;;;16.60;46.70;;;;;;10519513;28;20192;-64
2021/12/06 10:17:09;;;;;;;8.60;6.27;;;16.60;46.70;;;;;;10533773;28;20220;-63
2021/12/06 10:22:31;;;;;;;8.30;6.33;;;16.50;46.90;;;;;;10532122;28;20195;-63
2021/12/06 10:27:58;;;;;;;8.60;6.80;;;16.50;47.10;;;;;;10449457;28;20220;-64
2021/12/06 10:33:23;;;;;;;8.07;5.90;;;16.50;47.10;;;;;;10467029;28;20710;-63
2021/12/06 10:38:51;;;;;;;9.13;6.33;;;16.50;47.30;;;;;;10491579;28;20239;-64
2021/12/06 10:44:15;;;;;;;7.97;6.53;;;16.50;47.30;;;;;;10499447;28;20191;-61
2021/12/06 10:49:37;;;;;;;7.63;5.73;;;16.50;46.70;;;;;;10490984;28;20219;-63
2021/12/06 10:54:59;;;;;;;7.43;5.63;;;16.60;46.40;;;;;;10492062;28;20575;-64
2021/12/06 11:00:32;;;;;;;7.53;5.97;;;16.80;46.00;;;;;;10512492;28;20215;-61
2021/12/06 11:05:59;;;;;;;6.70;5.70;;;16.90;45.50;;;;;;10500169;28;20219;-63
2021/12/06 11:11:26;;;;;;;8.13;6.30;;;16.90;45.40;;;;;;10519607;28;20188;-64
2021/12/06 11:16:53;;;;;;;8.20;6.07;;;17.00;45.20;;;;;;10537903;28;21004;-63
2021/12/06 11:22:20;;;;;;;6.90;5.57;;;17.00;45.00;;;;;;10539432;28;20184;-64
2021/12/06 11:27:44;;;;;;;8.17;6.23;;;17.00;44.90;;;;;;10538586;28;20865;-65
2021/12/06 11:33:09;;;;;;;7.23;5.50;;;16.90;44.90;;;;;;10513427;28;20195;-63
2021/12/06 11:38:32;;;;;;;7.33;5.67;;;16.80;45.50;;;;;;10539434;28;20215;-63
2021/12/06 11:43:54;;;;;;;6.70;5.33;;;16.80;45.80;;;;;;10513251;28;20201;-63
2021/12/06 11:49:20;;;;;;;6.67;5.97;;;16.80;46.00;;;;;;10495988;28;20216;-63
2021/12/06 11:54:45;;;;;;;6.40;5.20;;;16.70;46.10;;;;;;10536109;28;20624;-66
2021/12/06 12:00:12;;;;;;;6.30;5.47;;;16.60;46.10;;;;;;10495920;28;20220;-63
2021/12/06 12:05:37;;;;;;;6.57;5.20;;;16.50;46.30;;;;;;10493958;28;20220;-63
2021/12/06 12:11:00;;;;;;;7.03;5.27;;;16.50;47.00;;;;;;10491260;28;20197;-64
2021/12/06 12:16:22;;;;;;;7.70;5.60;;;16.50;46.50;;;;;;10491918;28;20219;-63
2021/12/06 12:21:46;;;;;;;7.23;5.80;;;16.50;46.90;;;;;;10494569;28;20699;-63
2021/12/06 12:27:20;;;;;;;9.07;6.60;;;16.50;47.00;;;;;;10487392;28;20258;-64
2021/12/06 12:32:42;;;;;;;6.83;5.00;;;16.60;46.70;;;;;;10494380;28;20690;-61
2021/12/06 12:38:06;;;;;;;7.30;5.57;;;16.70;46.30;;;;;;10493092;28;20228;-66
2021/12/06 12:43:34;;;;;;;8.03;5.50;;;16.80;45.90;;;;;;10494069;28;20674;-63
2021/12/06 12:48:58;;;;;;;6.97;5.57;;;16.90;45.50;;;;;;10491326;28;20619;-62
2021/12/06 12:54:25;;;;;;;9.57;6.33;;;16.90;45.40;;;;;;10489332;28;20197;-63
2021/12/06 12:59:50;;;;;;;8.57;5.80;;;16.90;45.50;;;;;;10492756;28;20227;-63
2021/12/06 13:05:21;;;;;;;9.17;5.87;;;16.80;46.00;;;;;;10486352;28;20326;-64
2021/12/06 13:10:56;;;;;;;10.70;6.47;;;16.80;46.60;;;;;;10490444;28;20604;-63
2021/12/06 13:16:38;;;;;;;9.23;6.73;;;16.70;46.70;;;;;;10484088;28;20410;-63
2021/12/06 13:22:10;;;;;;;8.53;6.10;;;16.80;46.90;;;;;;10489252;28;20228;-63
2021/12/06 13:27:45;;;;;;;8.43;5.80;;;16.80;47.10;;;;;;10487983;28;20255;-63
2021/12/06 13:33:09;;;;;;;8.40;5.77;;;16.70;47.20;;;;;;10489852;28;20192;-63
2021/12/06 13:38:45;;;;;;;7.37;5.63;;;16.70;47.40;;;;;;10491143;28;20887;-63
2021/12/06 13:44:12;;;;;;;7.07;5.53;;;16.60;47.50;;;;;;10486673;28;20207;-64
2021/12/06 13:49:34;;;;;;;7.47;5.20;;;16.60;47.70;;;;;;10485518;28;20215;-62
2021/12/06 13:54:57;;;;;;;8.00;5.50;;;16.60;47.80;;;;;;10486889;28;20204;-64
2021/12/06 14:00:25;;;;;;;8.23;5.17;;;16.60;47.80;;;;;;10478921;28;20295;-64
2021/12/06 14:05:50;;;;;;;7.60;6.10;;;16.70;47.30;;;;;;10478663;28;20721;-64
2021/12/06 14:11:22;;;;;;;7.07;5.63;;;16.70;47.10;;;;;;10484180;28;20192;-65
2021/12/06 14:16:45;;;;;;;8.10;5.93;;;16.90;47.00;;;;;;10486100;28;20223;-63
2021/12/06 14:22:09;;;;;;;8.43;6.40;;;16.90;47.00;;;;;;10474779;28;20626;-63
2021/12/06 14:27:36;;;;;;;7.43;6.40;;;16.90;47.00;;;;;;10484264;28;20220;-62
2021/12/06 14:32:59;;;;;;;7.33;5.43;;;16.80;47.10;;;;;;10490843;28;20602;-65
2021/12/06 14:38:25;;;;;;;7.47;5.80;;;16.80;47.40;;;;;;10492232;28;20219;-65
2021/12/06 14:43:47;;;;;;;7.47;6.40;;;16.80;47.30;;;;;;10493134;28;20211;-65
2021/12/06 14:49:13;;;;;;;7.40;6.13;;;16.70;47.50;;;;;;10491250;28;20923;-62
2021/12/06 14:54:36;;;;;;;6.83;5.40;;;16.70;47.70;;;;;;10499691;28;20195;-65
2021/12/06 14:59:58;;;;;;;6.17;5.23;;;16.60;47.90;;;;;;10489442;28;20606;-65
2021/12/06 15:05:25;;;;;;;6.63;5.27;;;16.60;48.20;;;;;;10491799;28;20590;-64
2021/12/06 15:10:49;;;;;;;7.47;5.30;;;16.60;48.20;;;;;;10499153;28;20204;-63
2021/12/06 15:16:14;;;;;;;7.33;5.73;;;16.60;48.00;;;;;;10481508;28;20725;-64
2021/12/06 15:21:44;;;;;;;6.87;5.67;;;16.60;47.70;;;;;;10497654;28;20212;-63
2021/12/06 15:27:09;;;;;;;7.13;5.50;;;16.70;47.50;;;;;;10496053;28;20216;-65
2021/12/06 15:32:31;;;;;;;7.60;5.60;;;16.80;47.30;;;;;;10483504;28;20247;-62
2021/12/06 15:37:56;;;;;;;6.60;5.90;;;16.90;46.80;;;;;;10495249;28;20243;-64
2021/12/06 15:43:18;;;;;;;6.70;5.60;;;17.00;46.50;;;;;;10496688;28;20697;-63
2021/12/06 15:48:43;;;;;;;7.27;5.63;;;17.00;46.00;;;;;;10495071;28;20222;-63
2021/12/06 15:54:10;;;;;;;6.93;5.60;;;17.00;46.00;;;;;;10494272;28;20667;-63
2021/12/06 15:59:33;;;;;;;6.43;4.90;;;16.90;46.20;;;;;;10490868;28;20618;-63
2021/12/06 16:05:08;;;;;;;6.93;5.57;;;16.90;46.40;;;;;;10491190;28;20579;-64
2021/12/06 16:10:33;;;;;;;7.90;5.27;;;16.90;47.10;;;;;;10482654;28;20203;-63
2021/12/06 16:15:58;;;;;;;6.53;4.63;;;16.80;47.20;;;;;;10493989;28;20224;-62
2021/12/06 16:21:26;;;;;;;6.60;4.97;;;16.80;47.60;;;;;;10504934;28;20779;-64
2021/12/06 16:26:55;;;;;;;5.77;4.63;;;16.80;47.60;;;;;;10483536;28;20212;-63
2021/12/06 16:32:19;;;;;;;6.67;5.60;;;16.70;47.90;;;;;;10493560;28;20203;-64
2021/12/06 16:37:42;;;;;;;6.57;5.23;;;16.70;47.80;;;;;;10494484;28;20295;-64
2021/12/06 16:43:05;;;;;;;6.57;5.20;;;16.70;47.80;;;;;;10492604;28;20188;-63
2021/12/06 16:48:28;;;;;;;5.93;4.93;;;16.70;47.80;;;;;;10492033;28;20227;-64
2021/12/06 16:53:50;;;;;;;7.60;5.10;;;16.70;47.90;;;;;;10490615;28;20192;-64
2021/12/06 16:59:16;;;;;;;6.53;5.73;;;16.60;47.90;;;;;;10493391;28;20228;-65
2021/12/06 17:04:46;;;;;;;8.23;6.03;;;16.60;47.70;;;;;;10491506;28;20685;-64
2021/12/06 17:10:27;;;;;;;7.97;5.87;;;16.60;47.40;;;;;;10493438;28;20687;-64
2021/12/06 17:15:51;;;;;;;7.03;6.23;;;16.70;46.50;;;;;;10493963;28;20216;-65
2021/12/06 17:21:16;;;;;;;8.33;6.10;;;16.80;46.40;;;;;;10509431;28;20589;-64
2021/12/06 17:26:40;;;;;;;7.67;6.53;;;16.80;46.40;;;;;;10534604;28;20276;-64
2021/12/06 17:32:07;;;;;;;7.80;6.63;;;16.80;46.20;;;;;;10520458;28;20564;-64
2021/12/06 17:37:29;;;;;;;8.23;6.73;;;16.80;46.20;;;;;;10493062;28;20208;-64
2021/12/06 17:42:51;;;;;;;8.77;7.47;;;16.70;46.40;;;;;;10493066;28;20196;-64
2021/12/06 17:48:15;;;;;;;8.40;6.60;;;16.70;46.40;;;;;;10492139;28;20213;-64
2021/12/06 17:53:37;;;;;;;7.73;6.40;;;16.60;46.60;;;;;;10489736;28;20197;-64
2021/12/06 17:59:02;;;;;;;8.07;6.23;;;16.60;46.90;;;;;;10491288;28;20722;-63
2021/12/06 18:04:28;;;;;;;8.27;6.60;;;16.60;47.20;;;;;;10491471;28;20667;-64
2021/12/06 18:09:50;;;;;;;8.20;6.73;;;16.60;47.40;;;;;;10489370;28;20216;-64
2021/12/06 18:15:13;;;;;;;8.03;6.20;;;16.60;47.50;;;;;;10492854;28;20200;-64
2021/12/06 18:20:37;;;;;;;9.13;7.30;;;16.50;47.70;;;;;;10492942;28;20225;-64
2021/12/06 18:26:00;;;;;;;8.37;7.07;;;16.50;47.50;;;;;;10492076;28;20766;-63
2021/12/06 18:31:22;;;;;;;8.07;7.13;;;16.60;47.20;;;;;;10483891;28;20192;-64
2021/12/06 18:36:46;;;;;;;10.17;8.10;;;16.60;46.70;;;;;;10490367;28;20709;-64
2021/12/06 18:42:09;;;;;;;9.23;7.33;;;16.70;46.50;;;;;;10493702;28;20216;-65
2021/12/06 18:47:33;;;;;;;9.97;7.70;;;16.70;46.80;;;;;;10494678;28;20223;-64
2021/12/06 18:53:00;;;;;;;11.10;8.27;;;16.90;46.10;;;;;;10491097;28;20184;-64
2021/12/06 18:58:23;;;;;;;10.00;8.47;;;17.00;45.70;;;;;;10489059;28;20220;-64
2021/12/06 19:03:46;;;;;;;10.57;8.27;;;17.00;45.60;;;;;;10502738;28;20613;-65
2021/12/06 19:09:10;;;;;;;9.87;8.30;;;17.10;45.40;;;;;;10458862;28;20694;-64
2021/12/06 19:14:32;;;;;;;11.87;9.97;;;17.10;44.90;;;;;;10491793;28;20585;-64
2021/12/06 19:19:54;;;;;;;11.43;9.50;;;17.10;44.70;;;;;;10496342;28;20614;-64
2021/12/06 19:25:18;;;;;;;10.33;8.67;;;17.10;44.60;;;;;;10457303;28;20575;-64
2021/12/06 19:30:42;;;;;;;10.10;8.10;;;17.00;45.00;;;;;;10460662;28;20186;-64
2021/12/06 19:36:05;;;;;;;10.83;8.57;;;17.00;45.30;;;;;;10491115;28;20219;-65
2021/12/06 19:41:29;;;;;;;10.67;8.80;;;16.90;45.40;;;;;;10456761;28;20243;-64
2021/12/06 19:46:52;;;;;;;9.87;8.43;;;16.90;45.50;;;;;;10482675;28;20212;-64
2021/12/06 19:52:14;;;;;;;10.43;8.30;;;16.90;45.80;;;;;;10493442;28;20196;-64
2021/12/06 19:57:39;;;;;;;13.17;9.13;;;16.80;46.00;;;;;;10489541;28;20227;-64
2021/12/06 20:03:03;;;;;;;9.97;7.63;;;16.80;45.90;;;;;;10493677;28;20205;-63
2021/12/06 20:08:25;;;;;;;10.27;8.90;;;16.80;46.10;;;;;;10495694;28;20612;-63
2021/12/06 20:13:52;;;;;;;11.27;9.10;;;16.80;46.30;;;;;;10493913;28;20199;-64
2021/12/06 20:19:15;;;;;;;11.20;9.40;;;16.80;46.10;;;;;;10492697;28;20216;-64
2021/12/06 20:24:38;;;;;;;17.00;8.53;;;16.80;46.10;;;;;;10493706;28;20203;-64
2021/12/06 20:30:01;;;;;;;11.60;9.50;;;16.80;46.20;;;;;;10493357;28;20227;-62
2021/12/06 20:35:24;;;;;;;10.87;9.10;;;16.80;45.90;;;;;;10492831;28;20196;-65
2021/12/06 20:40:46;;;;;;;11.93;9.10;;;16.70;46.00;;;;;;10486340;28;20236;-63
2021/12/06 20:46:10;;;;;;;11.60;8.97;;;16.70;46.20;;;;;;10471092;28;20231;-63
2021/12/06 20:51:32;;;;;;;10.50;9.27;;;16.70;46.10;;;;;;10478587;28;20667;-64
2021/12/06 20:56:54;;;;;;;12.07;9.73;;;16.70;46.20;;;;;;10493074;28;20706;-64
2021/12/06 21:02:18;;;;;;;9.87;8.77;;;16.70;46.40;;;;;;10494491;28;20646;-64
2021/12/06 21:07:40;;;;;;;10.23;8.77;;;16.60;46.40;;;;;;10492997;28;20217;-64
2021/12/06 21:18:40;;;;;;;12.23;9.70;;;16.60;46.50;;;;;;10493795;28;20782;-64
2021/12/06 21:24:02;;;;;;;9.50;8.10;;;16.60;46.20;;;;;;10493435;28;20195;-63
2021/12/06 21:29:25;;;;;;;11.50;9.23;;;16.70;45.90;;;;;;10492151;28;20221;-64
2021/12/06 21:34:48;;;;;;;11.43;9.17;;;16.80;45.80;;;;;;10492543;28;20200;-64
2021/12/06 21:40:11;;;;;;;13.03;10.37;;;16.90;45.50;;;;;;10491107;28;20227;-64
2021/12/06 21:45:34;;;;;;;12.97;9.90;;;17.00;44.70;;;;;;10492554;28;20204;-64
2021/12/06 21:50:57;;;;;;;11.93;9.57;;;17.00;44.60;;;;;;10491868;28;20199;-64
2021/12/06 21:56:20;;;;;;;11.50;9.33;;;16.90;45.00;;;;;;10491985;28;20224;-64
2021/12/06 22:01:42;;;;;;;10.10;8.10;;;16.80;45.30;;;;;;10486798;28;20216;-64
2021/12/06 22:07:07;;;;;;;11.57;8.67;;;16.80;45.80;;;;;;10523443;28;20211;-64
2021/12/06 22:12:29;;;;;;;10.13;8.07;;;16.70;46.00;;;;;;10503348;28;20804;-66
2021/12/06 22:17:54;;;;;;;10.67;9.07;;;16.70;46.20;;;;;;10491340;28;20224;-64
2021/12/06 22:23:18;;;;;;;13.43;9.00;;;16.60;46.40;;;;;;10491444;28;20235;-65
2021/12/06 22:28:40;;;;;;;9.83;7.93;;;16.60;46.30;;;;;;10513582;28;20222;-64
2021/12/06 22:34:03;;;;;;;10.70;8.00;;;16.60;46.40;;;;;;10504797;28;20224;-64
2021/12/06 22:39:26;;;;;;;11.10;8.37;;;16.60;46.30;;;;;;10488903;28;20362;-65
2021/12/06 22:44:49;;;;;;;11.63;8.73;;;16.50;46.30;;;;;;10512889;28;20191;-64
2021/12/06 22:50:13;;;;;;;12.17;9.20;;;16.60;46.20;;;;;;10489690;28;20217;-64
2021/12/06 22:55:38;;;;;;;11.37;8.17;;;16.60;46.10;;;;;;10495681;28;20196;-64
2021/12/06 23:01:23;;;;;;;11.00;8.93;;;16.60;45.90;;;;;;10457620;28;20213;-64
2021/12/06 23:06:45;;;;;;;11.87;8.10;;;16.60;45.60;;;;;;10415783;28;20221;-64
2021/12/06 23:12:16;;;;;;;10.87;8.30;;;16.60;46.00;;;;;;10415698;28;20205;-64
2021/12/06 23:17:38;;;;;;;10.37;7.90;;;16.60;46.10;;;;;;10412183;28;20596;-64
2021/12/06 23:23:03;;;;;;;11.00;9.13;;;16.60;46.10;;;;;;10415008;28;20215;-65
2021/12/06 23:28:28;;;;;;;11.43;8.50;;;16.50;46.00;;;;;;10415002;28;20240;-64
2021/12/06 23:33:51;;;;;;;10.80;7.87;;;16.50;46.20;;;;;;10415149;28;20200;-64
2021/12/06 23:39:40;;;;;;;9.90;8.10;;;16.50;46.20;;;;;;10404113;28;20766;-64
2021/12/06 23:50:57;;;;;;;8.73;7.20;;;16.50;46.30;;;;;;10329501;28;20278;-64
2021/12/06 23:56:19;;;;;;;12.37;8.20;;;16.50;46.50;;;;;;10422525;28;20709;-64
